KMFI/MFI METAR and TAF weather

Enter ICAO airport designator
Station Type Date Time Source
KMFI METAR 2021/07/27 22:54 UTC NOAA

KMFI 272254Z AUTO 33003KT 10SM OVC031 27/21 A3002 RMK AO2 SLP158 T02720206


Station Type Date Time Source
KMFI Decoded METAR 2021/07/27 22:54 UTC NOAA

MARSHFIELD MUNICIPAL AIRPORT, WI, United States (KMFI) 44-38N 90-11W 379M
Jul 27, 2021 - 06:54 PM EDT / 2021.07.27 2254 UTC
Wind: from the NNW (330 degrees) at 3 MPH (3 KT):0
Visibility: 10 mile(s):0
Sky conditions: overcast
Temperature: 81.0 F (27.2 C)
Dew Point: 69.1 F (20.6 C)
Relative Humidity: 67%
Pressure (altimeter): 30.02 in. Hg (1016 hPa)
ob: KMFI 272254Z AUTO 33003KT 10SM OVC031 27/21 A3002 RMK AO2 SLP158 T02720206
cycle: 23

Station Type Date Time Source
KMFI TAF UTC NOAA

Error!

Example: see airport list